Terminal Aerodrome Forecast
Issued by NWS Louisville, KY

Home | Current Version | Previous Version | Text Only | Print | Product List | Glossary On
Versions: 1 2 3 4 5 6 7 8 9 10 11 12 13 14 15
234
FTUS43 KLMK 171123
TAFLEX
TAF
KLEX 171123Z 1712/1812 20009KT P6SM SCT030
     FM172200 22012G20KT P6SM -SHRA VCTS BKN035CB BKN090
     FM180200 21006KT P6SM VCSH SCT030 BKN200
     FM180700 22007KT 6SM BR BKN025=

USA.gov is the U.S. government's official web portal to all federal, state and local government web resources and services.